Time;durP1;ratioP1;P1;durP2;ratioP2;P2;SDS_P1;SDS_P2;PMS_P1;PMS_P2;Temp;Humidity;BMP_temperature;BMP_pressure;BME280_temperature;BME280_humidity;BME280_pressure;Samples;Min_cycle;Max_cycle;Signal;HPM_P1;HPM_P2
2022/07/03 00:01:44;;;;;;;4.22;3.05;;;;;;;26.15;48.67;100953.56;5094767;28;20055;-73
2022/07/03 00:04:11;;;;;;;6.65;3.05;;;;;;;26.04;49.72;100958.19;5094379;28;20044;-73
2022/07/03 00:06:39;;;;;;;3.67;2.92;;;;;;;25.93;49.32;100960.84;5094419;28;20048;-73
2022/07/03 00:09:07;;;;;;;7.80;3.33;;;;;;;26.08;48.97;100956.28;5080286;28;20063;-73
2022/07/03 00:11:35;;;;;;;3.70;3.10;;;;;;;26.01;48.94;100959.75;5092809;28;20051;-74
2022/07/03 00:14:04;;;;;;;3.47;2.83;;;;;;;26.05;48.73;100961.81;5094479;28;20051;-73
2022/07/03 00:16:32;;;;;;;4.32;3.15;;;;;;;25.89;49.47;100959.97;5094097;28;20127;-74
2022/07/03 00:19:00;;;;;;;3.38;3.00;;;;;;;25.87;49.71;100953.94;5094333;28;20052;-74
2022/07/03 00:21:50;;;;;;;3.38;2.83;;;;;;;25.75;49.96;100955.78;5091861;28;20071;-74
2022/07/03 00:24:32;;;;;;;4.13;2.63;;;;;;;25.70;49.28;100952.50;5082266;28;20482;-74
2022/07/03 00:27:01;;;;;;;3.17;2.90;;;;;;;25.60;49.68;100951.09;5093933;28;20067;-74
2022/07/03 00:29:37;;;;;;;3.67;3.22;;;;;;;25.72;49.49;100956.50;5089673;28;20045;-74
2022/07/03 00:32:09;;;;;;;3.70;3.25;;;;;;;25.55;51.09;100948.66;5093629;28;20040;-74
2022/07/03 00:34:38;;;;;;;3.50;3.08;;;;;;;25.67;49.74;100959.66;5093889;28;20043;-74
2022/07/03 00:37:08;;;;;;;3.28;2.92;;;;;;;25.58;50.54;100947.88;5089167;28;20510;-74
2022/07/03 00:39:39;;;;;;;5.85;3.17;;;;;;;25.46;51.13;100940.47;5085670;28;20399;-74
2022/07/03 00:42:09;;;;;;;4.50;3.13;;;;;;;25.41;50.58;100952.78;5093713;28;20059;-74
2022/07/03 00:44:50;;;;;;;2.95;2.72;;;;;;;25.53;50.38;100948.16;5093377;28;20059;-74
2022/07/03 00:47:21;;;;;;;4.43;3.40;;;;;;;25.55;50.68;100952.25;5093294;28;20040;-74
2022/07/03 00:49:52;;;;;;;4.43;3.00;;;;;;;25.49;50.82;100948.94;5077899;28;20040;-74
2022/07/03 00:52:22;;;;;;;3.97;3.10;;;;;;;25.50;50.89;100961.75;5084696;28;20487;-73
2022/07/03 00:54:55;;;;;;;5.60;3.28;;;;;;;25.48;51.22;100943.69;5093499;28;20294;-74
2022/07/03 00:57:27;;;;;;;4.10;2.90;;;;;;;25.58;51.11;100943.09;5093357;28;20048;-73
2022/07/03 00:59:55;;;;;;;3.28;2.97;;;;;;;25.44;51.52;100940.84;5093126;28;20055;-74
2022/07/03 01:02:40;;;;;;;5.90;3.70;;;;;;;25.37;51.57;100943.50;5086843;28;20064;-73
2022/07/03 01:05:15;;;;;;;3.95;2.95;;;;;;;25.25;51.71;100938.91;5072371;28;20041;-74
2022/07/03 01:08:24;;;;;;;4.47;3.25;;;;;;;25.19;52.07;100941.22;5072694;28;20491;-73
2022/07/03 01:10:55;;;;;;;6.63;3.25;;;;;;;25.35;51.57;100940.25;5052307;28;20056;-73
2022/07/03 01:13:41;;;;;;;4.63;3.38;;;;;;;25.28;52.16;100942.94;5072570;28;20047;-73
2022/07/03 01:16:27;;;;;;;4.18;3.00;;;;;;;25.19;52.11;100946.00;5072696;28;20044;-73
2022/07/03 01:19:09;;;;;;;3.72;2.90;;;;;;;25.06;52.78;100948.13;5071599;28;20071;-73
2022/07/03 01:22:00;;;;;;;4.93;2.92;;;;;;;25.04;52.58;100939.31;5071282;28;20043;-73
2022/07/03 01:24:53;;;;;;;3.15;2.85;;;;;;;25.02;52.78;100938.88;5072467;28;20044;-73
2022/07/03 01:27:34;;;;;;;5.87;2.93;;;;;;;24.99;53.04;100937.63;5067816;28;20049;-73
2022/07/03 01:30:04;;;;;;;4.05;3.03;;;;;;;24.94;53.01;100941.53;5071978;28;20053;-73
2022/07/03 01:32:38;;;;;;;6.47;2.80;;;;;;;25.09;52.26;100939.00;5072024;28;20048;-73
2022/07/03 01:35:07;;;;;;;;;;;;;;;25.16;52.64;100939.13;5072538;28;20052;-73
2022/07/03 01:37:38;;;;;;;4.45;3.33;;;;;;;25.06;52.67;100943.38;5071978;28;20306;-73
2022/07/03 01:40:07;;;;;;;2.90;2.70;;;;;;;25.07;52.91;100938.59;5072219;28;20487;-73
2022/07/03 01:42:40;;;;;;;4.25;3.20;;;;;;;25.01;53.57;100928.84;5072412;28;20055;-73
2022/07/03 01:45:09;;;;;;;4.13;2.70;;;;;;;24.83;54.39;100924.53;5072088;28;20056;-73
2022/07/03 01:47:41;;;;;;;5.30;2.60;;;;;;;24.94;53.92;100923.94;5071632;28;20052;-73
2022/07/03 01:50:14;;;;;;;6.50;2.83;;;;;;;24.92;54.39;100924.31;5072101;28;20059;-73
2022/07/03 01:52:45;;;;;;;3.35;2.95;;;;;;;24.82;54.41;100924.91;5089605;28;20708;-73
2022/07/03 01:55:15;;;;;;;3.13;2.75;;;;;;;24.81;54.48;100923.28;5092107;28;20048;-73
2022/07/03 01:57:48;;;;;;;4.40;3.20;;;;;;;24.68;55.11;100920.63;5092233;28;20036;-73
2022/07/03 02:00:21;;;;;;;5.45;2.67;;;;;;;24.70;54.97;100925.84;5091295;28;20040;-73
2022/07/03 02:02:54;;;;;;;2.90;2.55;;;;;;;24.65;54.64;100917.75;5080101;28;20052;-73
2022/07/03 02:05:21;;;;;;;3.60;3.25;;;;;;;24.76;54.79;100923.53;5081776;28;20375;-73
2022/07/03 02:08:00;;;;;;;3.25;2.95;;;;;;;24.62;55.35;100926.88;5091986;28;20409;-73
2022/07/03 02:10:33;;;;;;;5.82;3.03;;;;;;;24.57;55.31;100922.38;5092312;28;20048;-73
2022/07/03 02:13:10;;;;;;;3.20;2.90;;;;;;;24.61;55.46;100914.88;5090937;28;20055;-73
2022/07/03 02:15:43;;;;;;;4.07;2.63;;;;;;;24.67;55.12;100921.81;5091748;28;20098;-73
2022/07/03 02:18:27;;;;;;;4.95;3.38;;;;;;;24.70;55.04;100915.44;5091893;28;20036;-73
2022/07/03 02:21:28;;;;;;;3.50;3.00;;;;;;;24.60;55.65;100921.66;5092224;28;20040;-73
2022/07/03 02:24:18;;;;;;;4.55;2.80;;;;;;;24.53;55.65;100930.72;5084288;28;20391;-73
2022/07/03 02:26:52;;;;;;;3.45;2.72;;;;;;;24.62;55.43;100915.69;5089883;28;20040;-73
2022/07/03 02:29:30;;;;;;;3.53;2.90;;;;;;;24.58;55.67;100915.59;5091802;28;20098;-73
2022/07/03 02:32:02;;;;;;;2.80;2.60;;;;;;;24.52;55.79;100920.69;5086657;28;20053;-73
2022/07/03 02:34:32;;;;;;;5.03;3.28;;;;;;;24.49;56.09;100909.44;5083495;28;20483;-73
2022/07/03 02:37:10;;;;;;;5.18;3.30;;;;;;;24.59;55.51;100914.44;5091546;28;20056;-73
2022/07/03 02:39:50;;;;;;;5.20;2.95;;;;;;;24.51;56.50;100915.47;5091717;28;20410;-73
2022/07/03 02:42:47;;;;;;;6.32;2.97;;;;;;;24.47;56.37;100929.38;5091776;28;20044;-73
2022/07/03 02:45:17;;;;;;;3.60;3.00;;;;;;;24.43;56.02;100928.50;5091159;28;20048;-73
2022/07/03 02:47:48;;;;;;;4.45;3.10;;;;;;;24.57;55.62;100927.97;5091912;28;20058;-73
2022/07/03 02:50:21;;;;;;;3.92;2.80;;;;;;;24.56;55.58;100920.78;5080421;28;20057;-73
2022/07/03 02:53:04;;;;;;;5.47;3.42;;;;;;;24.52;55.88;100931.88;5088976;28;20052;-73
2022/07/03 02:55:45;;;;;;;4.40;2.67;;;;;;;24.40;56.35;100924.44;5066712;28;20061;-73
2022/07/03 02:58:37;;;;;;;6.15;2.60;;;;;;;24.49;55.94;100927.00;5062414;28;20040;-73
2022/07/03 03:01:13;;;;;;;3.88;2.97;;;;;;;24.54;55.89;100923.94;5088096;28;20044;-73
2022/07/03 03:03:48;;;;;;;6.13;3.03;;;;;;;24.55;55.69;100919.94;5071404;28;20041;-73
2022/07/03 03:06:21;;;;;;;2.95;2.75;;;;;;;24.50;56.15;100923.06;5086629;28;20048;-73
2022/07/03 03:08:52;;;;;;;3.47;2.92;;;;;;;24.50;56.38;100922.25;5071117;28;20071;-73
2022/07/03 03:11:38;;;;;;;2.95;2.63;;;;;;;24.49;56.09;100921.41;5070908;28;20059;-73
2022/07/03 03:14:09;;;;;;;3.13;2.83;;;;;;;24.40;56.63;100916.03;5070343;28;20055;-73
2022/07/03 03:16:45;;;;;;;3.85;2.90;;;;;;;24.37;57.30;100919.59;5070945;28;20395;-73
2022/07/03 03:19:14;;;;;;;3.17;2.88;;;;;;;24.31;57.20;100926.66;5070405;28;20056;-73
2022/07/03 03:21:52;;;;;;;8.13;2.90;;;;;;;24.39;56.95;100922.81;5070874;28;20053;-73
2022/07/03 03:24:22;;;;;;;3.67;2.88;;;;;;;24.44;56.87;100918.94;5071004;28;20052;-73
2022/07/03 03:26:50;;;;;;;3.20;2.90;;;;;;;24.29;57.93;100923.41;5070608;28;20071;-73
2022/07/03 03:29:18;;;;;;;5.93;3.15;;;;;;;24.26;57.53;100921.34;5070864;28;20049;-73
2022/07/03 03:31:46;;;;;;;3.80;3.10;;;;;;;24.16;57.98;100926.31;5069030;28;20044;-73
2022/07/03 03:34:15;;;;;;;4.90;3.03;;;;;;;24.12;58.21;100911.47;5070380;28;20049;-73
2022/07/03 03:36:44;;;;;;;3.20;2.72;;;;;;;24.06;58.63;100917.69;5070403;28;20079;-73
2022/07/03 03:39:12;;;;;;;4.05;3.33;;;;;;;24.01;59.71;100919.56;5070685;28;20036;-73
2022/07/03 03:41:40;;;;;;;4.82;2.75;;;;;;;24.04;60.34;100923.63;5070680;28;20049;-73
2022/07/03 03:44:08;;;;;;;3.97;3.05;;;;;;;24.18;58.59;100925.97;5072253;28;20495;-73
2022/07/03 03:46:36;;;;;;;4.05;3.03;;;;;;;24.20;58.21;100922.81;5074090;28;20045;-73
2022/07/03 03:49:04;;;;;;;4.57;2.70;;;;;;;24.31;58.33;100923.84;5073610;28;20044;-73
2022/07/03 03:51:32;;;;;;;6.20;2.88;;;;;;;24.33;58.67;100924.28;5082134;28;20067;-73
2022/07/03 03:54:00;;;;;;;8.85;3.10;;;;;;;24.33;58.47;100926.28;5083684;28;20067;-73
2022/07/03 03:56:28;;;;;;;4.13;3.00;;;;;;;24.37;58.78;100924.38;5073994;28;20403;-73
2022/07/03 03:58:55;;;;;;;6.75;3.38;;;;;;;24.39;58.96;100925.63;5073799;28;20055;-73
2022/07/03 04:01:23;;;;;;;2.92;2.72;;;;;;;24.47;58.30;100925.75;5073741;28;20036;-73
2022/07/03 04:03:51;;;;;;;3.03;2.47;;;;;;;24.49;58.79;100934.63;5073222;28;20053;-72
2022/07/03 04:06:20;;;;;;;5.75;2.90;;;;;;;24.60;57.96;100932.84;5073683;28;20051;-73
2022/07/03 04:08:48;;;;;;;3.15;2.70;;;;;;;24.67;57.85;100927.41;5073529;28;20059;-73
2022/07/03 04:11:16;;;;;;;4.18;2.78;;;;;;;24.69;58.08;100927.03;5073512;28;20059;-73
2022/07/03 04:13:45;;;;;;;3.72;3.33;;;;;;;24.69;57.66;100930.63;5073254;28;20060;-72
2022/07/03 04:16:13;;;;;;;5.70;3.30;;;;;;;24.72;57.49;100925.50;5073579;28;20475;-73
2022/07/03 04:18:41;;;;;;;3.78;3.22;;;;;;;24.69;58.01;100936.22;5072642;28;20529;-73
2022/07/03 04:21:09;;;;;;;3.13;2.83;;;;;;;24.65;57.90;100935.34;5070809;28;20517;-73
2022/07/03 04:23:37;;;;;;;4.43;2.95;;;;;;;24.77;57.92;100931.59;5072642;28;20051;-73
2022/07/03 04:26:06;;;;;;;3.35;3.00;;;;;;;24.70;57.92;100935.03;5072968;28;20044;-73
2022/07/03 04:28:42;;;;;;;3.45;2.90;;;;;;;24.73;57.35;100935.50;5072256;28;20052;-73
2022/07/03 04:31:10;;;;;;;5.13;2.83;;;;;;;24.74;57.45;100929.53;5072982;28;20048;-73
2022/07/03 04:33:38;;;;;;;3.85;3.28;;;;;;;24.80;58.07;100938.44;5071369;28;20411;-73
2022/07/03 04:36:13;;;;;;;3.47;3.17;;;;;;;24.77;57.82;100937.19;5065920;28;20495;-73
2022/07/03 04:38:42;;;;;;;4.90;2.90;;;;;;;24.87;57.90;100929.41;5072762;28;20049;-73
2022/07/03 04:41:10;;;;;;;3.92;3.38;;;;;;;25.03;56.73;100932.09;5072720;28;20044;-73
2022/07/03 04:43:38;;;;;;;3.42;2.65;;;;;;;25.13;56.17;100937.09;5071154;28;20064;-73
2022/07/03 04:46:06;;;;;;;3.28;2.97;;;;;;;25.21;56.44;100938.84;5072547;28;20056;-73
2022/07/03 04:48:34;;;;;;;4.13;2.95;;;;;;;25.27;56.53;100930.13;5072587;28;20037;-73
2022/07/03 04:51:02;;;;;;;3.05;2.70;;;;;;;25.38;56.24;100936.72;5075462;28;20051;-73
2022/07/03 04:53:30;;;;;;;5.85;3.25;;;;;;;25.58;54.68;100934.69;5078661;28;20045;-73
2022/07/03 04:55:58;;;;;;;5.00;2.95;;;;;;;25.60;55.43;100939.91;5074719;28;20049;-73
2022/07/03 04:58:26;;;;;;;4.95;3.10;;;;;;;25.61;54.82;100941.53;5078226;28;20059;-73
2022/07/03 05:00:54;;;;;;;3.55;3.00;;;;;;;25.81;53.83;100939.44;5073481;28;20040;-73
2022/07/03 05:03:22;;;;;;;6.07;3.75;;;;;;;25.90;53.44;100944.78;5071610;28;20044;-73
2022/07/03 05:05:52;;;;;;;3.88;3.00;;;;;;;26.01;53.54;100948.53;5072616;28;20053;-73
2022/07/03 05:08:20;;;;;;;4.47;2.60;;;;;;;26.06;52.89;100941.81;5071054;28;20045;-73
2022/07/03 05:10:47;;;;;;;4.00;3.10;;;;;;;26.12;52.65;100945.91;5072505;28;20056;-73
2022/07/03 05:13:15;;;;;;;3.90;3.33;;;;;;;26.19;52.75;100948.00;5071960;28;20055;-74
2022/07/03 05:15:43;;;;;;;5.75;3.38;;;;;;;26.33;52.58;100952.25;5071561;28;20060;-74
2022/07/03 05:18:11;;;;;;;5.05;2.85;;;;;;;26.56;52.08;100957.75;5069461;28;20044;-73
2022/07/03 05:20:39;;;;;;;4.65;3.00;;;;;;;26.78;52.57;100958.00;5072009;28;20072;-73
2022/07/03 05:23:07;;;;;;;6.40;3.42;;;;;;;26.79;51.57;100959.63;5071589;28;20517;-73
2022/07/03 05:25:35;;;;;;;3.50;3.10;;;;;;;26.90;51.71;100954.13;5071593;28;20052;-73
2022/07/03 05:28:03;;;;;;;4.43;2.83;;;;;;;26.99;50.93;100957.47;5071948;28;20047;-73
2022/07/03 05:30:31;;;;;;;3.88;3.22;;;;;;;27.12;51.37;100948.78;5071926;28;20047;-73
2022/07/03 05:32:59;;;;;;;3.80;2.78;;;;;;;27.13;51.38;100950.38;5071432;28;20499;-73
2022/07/03 05:35:27;;;;;;;3.92;2.70;;;;;;;27.09;52.26;100950.34;5071730;28;20041;-73
2022/07/03 05:37:55;;;;;;;3.97;3.13;;;;;;;27.40;50.64;100944.59;5070750;28;20049;-73
2022/07/03 05:40:24;;;;;;;5.68;3.25;;;;;;;27.55;50.33;100946.34;5071570;28;20047;-80
2022/07/03 05:42:53;;;;;;;3.92;2.92;;;;;;;27.66;49.49;100938.00;5053275;28;20059;-82
2022/07/03 05:45:22;;;;;;;3.17;2.83;;;;;;;27.77;48.85;100944.53;5038474;28;20052;-82
2022/07/03 05:47:50;;;;;;;7.72;2.95;;;;;;;27.76;48.15;100942.13;5037008;28;20044;-82
2022/07/03 05:50:19;;;;;;;3.55;2.83;;;;;;;27.87;48.86;100947.81;5052909;28;20044;-82
2022/07/03 05:52:47;;;;;;;4.68;2.85;;;;;;;27.90;48.69;100953.47;5038996;28;20048;-83
2022/07/03 05:55:15;;;;;;;5.35;2.83;;;;;;;27.97;48.99;100949.09;5038718;28;20056;-84
2022/07/03 05:57:50;;;;;;;3.35;2.90;;;;;;;27.96;48.58;100948.25;5060416;28;20048;-85
2022/07/03 06:00:20;;;;;;;3.40;3.10;;;;;;;28.02;48.28;100949.50;5070536;28;20055;-84
2022/07/03 06:02:53;;;;;;;3.05;2.83;;;;;;;28.13;47.97;100954.41;5057111;28;20371;-85
2022/07/03 06:05:22;;;;;;;3.00;2.80;;;;;;;28.12;48.06;100953.63;5053558;28;20514;-84
2022/07/03 06:07:54;;;;;;;2.80;2.60;;;;;;;28.21;47.74;100949.63;5054179;28;20070;-84
2022/07/03 06:10:26;;;;;;;3.42;2.80;;;;;;;28.35;48.38;100958.16;5107245;28;20436;-85
2022/07/03 06:12:57;;;;;;;3.33;3.03;;;;;;;28.28;47.46;100956.13;5057841;28;20051;-84
2022/07/03 06:15:34;;;;;;;10.32;3.22;;;;;;;28.29;47.45;100954.94;5030782;28;20040;-84
2022/07/03 06:18:04;;;;;;;3.45;2.67;;;;;;;28.38;47.77;100965.84;5053249;28;20039;-84
2022/07/03 06:20:32;;;;;;;2.67;2.45;;;;;;;28.43;47.37;100954.19;5053651;28;20044;-84
2022/07/03 06:23:01;;;;;;;2.85;2.40;;;;;;;28.61;46.75;100963.91;5053131;28;20067;-84
2022/07/03 06:25:31;;;;;;;3.17;2.55;;;;;;;28.71;46.58;100960.34;5036462;28;20059;-84
2022/07/03 06:27:59;;;;;;;2.65;2.45;;;;;;;28.76;46.03;100959.97;5041102;28;20045;-85
2022/07/03 06:30:33;;;;;;;;;;;;;;;28.84;46.22;100967.22;5037831;28;20480;-85
2022/07/03 06:33:02;;;;;;;4.50;2.90;;;;;;;28.94;45.12;100968.47;5035973;28;19932;-85
2022/07/03 06:35:48;;;;;;;3.92;2.60;;;;;;;28.88;45.41;100970.06;5041232;28;20505;-85
2022/07/03 06:38:16;;;;;;;5.68;3.08;;;;;;;28.88;45.41;100970.06;5052368;28;20041;-85
2022/07/03 06:40:46;;;;;;;5.15;2.90;;;;;;;28.99;44.45;100970.13;5041440;28;20407;-85
2022/07/03 06:43:18;;;;;;;4.03;2.70;;;;;;;29.06;45.14;100966.50;5052549;28;20044;-85
2022/07/03 06:45:47;;;;;;;3.63;2.55;;;;;;;29.10;44.74;100961.69;5036450;28;20076;-85
2022/07/03 06:48:16;;;;;;;3.97;2.83;;;;;;;29.22;44.98;100974.56;5052424;28;20049;-85
2022/07/03 06:50:48;;;;;;;5.40;2.47;;;;;;;29.38;44.56;100974.19;5051899;28;20056;-85
2022/07/03 06:53:16;;;;;;;3.88;3.10;;;;;;;29.32;45.13;100962.50;5036747;28;20052;-85
2022/07/03 06:55:47;;;;;;;5.70;3.00;;;;;;;29.32;45.46;100959.69;5052656;28;20048;-84
2022/07/03 06:58:16;;;;;;;5.25;3.58;;;;;;;29.42;45.68;100955.25;5035854;28;20565;-85
2022/07/03 07:00:44;;;;;;;4.03;3.58;;;;;;;29.48;45.42;100967.78;5035934;28;20055;-84
2022/07/03 07:03:13;;;;;;;6.22;3.38;;;;;;;29.53;45.43;100963.78;5033900;28;20040;-84
2022/07/03 07:05:41;;;;;;;7.28;3.17;;;;;;;29.67;44.77;100956.50;5051567;28;20052;-84
2022/07/03 07:08:10;;;;;;;7.38;3.08;;;;;;;29.76;44.50;100960.53;5067848;28;20503;-84
2022/07/03 07:10:38;;;;;;;4.65;3.33;;;;;;;29.80;44.42;100954.09;5052875;28;20040;-84
2022/07/03 07:13:08;;;;;;;6.00;3.13;;;;;;;29.88;44.66;100956.50;5052990;28;20499;-84
2022/07/03 07:15:43;;;;;;;3.60;3.30;;;;;;;29.94;44.29;100958.88;5031385;28;20049;-85
2022/07/03 07:18:11;;;;;;;3.58;2.60;;;;;;;30.03;44.19;100957.28;5032973;28;20407;-85
2022/07/03 07:20:41;;;;;;;5.10;3.40;;;;;;;30.07;44.60;100953.63;5039397;28;20045;-85
2022/07/03 07:23:10;;;;;;;5.20;3.20;;;;;;;30.10;44.47;100967.75;5055241;28;20051;-84
2022/07/03 07:25:38;;;;;;;3.30;3.00;;;;;;;30.10;44.89;100958.50;5038757;28;20507;-84
2022/07/03 07:28:11;;;;;;;3.38;2.95;;;;;;;30.25;44.53;100950.78;5040095;28;20052;-85
2022/07/03 07:30:41;;;;;;;7.90;2.70;;;;;;;30.03;45.25;100954.44;5039302;28;20510;-85
2022/07/03 07:33:24;;;;;;;5.90;2.97;;;;;;;30.11;46.05;100954.47;5053369;28;20403;-84
2022/07/03 07:36:09;;;;;;;5.00;3.00;;;;;;;30.25;45.27;100956.44;5041907;28;20044;-83
2022/07/03 07:38:55;;;;;;;2.85;2.53;;;;;;;30.28;45.24;100952.78;5039735;28;20430;-84
2022/07/03 07:41:38;;;;;;;3.17;2.72;;;;;;;30.30;44.27;100954.00;5039810;28;20399;-84
2022/07/03 07:44:09;;;;;;;5.68;3.05;;;;;;;30.40;44.91;100957.19;5052250;28;20059;-84
2022/07/03 07:46:52;;;;;;;;;;;;;;;30.39;45.39;100955.59;5072461;28;20052;-83
2022/07/03 07:49:36;;;;;;;4.10;2.90;;;;;;;30.39;45.16;100956.38;5058186;28;19928;-84
2022/07/03 07:52:24;;;;;;;3.53;2.95;;;;;;;30.31;45.81;100955.59;5052319;28;20041;-84
2022/07/03 07:55:29;;;;;;;3.55;3.05;;;;;;;30.30;46.87;100956.03;5054727;28;20052;-85
2022/07/03 07:58:57;;;;;;;4.75;3.20;;;;;;;30.38;46.80;100937.84;5070201;28;20049;-84
2022/07/03 08:08:17;;;;;;;5.78;3.33;;;;;;;30.56;45.32;100943.38;5056300;28;20056;-81
2022/07/03 08:10:51;;;;;;;5.22;2.97;;;;;;;30.75;44.98;100944.16;5038626;28;20048;-83
2022/07/03 08:13:22;;;;;;;3.55;2.22;;;;;;;30.84;44.68;100949.34;5039144;28;20044;-82
2022/07/03 08:15:52;;;;;;;6.07;3.00;;;;;;;30.79;44.78;100944.91;5035535;28;20056;-82
2022/07/03 08:18:25;;;;;;;3.80;2.63;;;;;;;30.78;44.89;100948.97;5038552;28;20052;-82
2022/07/03 08:20:54;;;;;;;6.15;2.85;;;;;;;30.89;45.12;100945.28;5037928;28;20059;-82
2022/07/03 08:23:23;;;;;;;4.15;2.92;;;;;;;30.98;44.77;100946.44;5038618;28;20454;-82
2022/07/03 08:25:51;;;;;;;5.95;2.90;;;;;;;31.03;44.02;100936.72;5038138;28;20041;-84
2022/07/03 08:28:22;;;;;;;4.20;2.55;;;;;;;31.15;42.89;100938.25;5050985;28;20041;-83
2022/07/03 08:30:57;;;;;;;3.05;2.70;;;;;;;31.24;41.93;100937.78;5037882;28;20067;-81
2022/07/03 08:33:26;;;;;;;4.00;2.65;;;;;;;31.31;42.10;100937.75;5037231;28;20053;-82
2022/07/03 08:35:56;;;;;;;4.82;2.58;;;;;;;31.32;42.45;100930.88;5037474;28;20059;-82
2022/07/03 08:38:30;;;;;;;2.58;2.38;;;;;;;31.36;42.90;100939.31;5054228;28;20399;-82
2022/07/03 08:41:04;;;;;;;5.57;2.70;;;;;;;31.31;43.29;100923.63;5053953;28;20056;-81
2022/07/03 08:43:34;;;;;;;3.70;2.55;;;;;;;31.31;43.23;100926.44;5038027;28;20055;-82
2022/07/03 08:46:03;;;;;;;5.47;2.92;;;;;;;31.34;43.76;100928.44;5037781;28;20049;-82
2022/07/03 08:48:35;;;;;;;3.95;2.85;;;;;;;31.44;43.67;100921.09;5049642;28;20052;-83
2022/07/03 09:59:22;;;;;;;3.60;2.65;;;;;;;32.43;40.87;100903.91;5068925;28;20424;-82
2022/07/03 10:01:51;;;;;;;5.70;2.40;;;;;;;32.60;40.74;100907.75;5062081;28;20053;-84
2022/07/03 10:04:22;;;;;;;5.45;3.17;;;;;;;32.80;39.94;100904.22;5064002;28;20060;-83
2022/07/03 10:06:57;;;;;;;3.90;3.22;;;;;;;33.01;40.46;100899.47;5054093;28;20041;-83
2022/07/03 10:09:31;;;;;;;5.10;3.13;;;;;;;33.10;39.41;100899.72;5047773;28;20044;-81
2022/07/03 10:12:01;;;;;;;2.05;1.95;;;;;;;33.24;39.70;100899.47;5048369;28;20045;-82
2022/07/03 10:14:33;;;;;;;4.10;2.72;;;;;;;33.35;39.49;100901.34;5048210;28;20052;-82
2022/07/03 10:17:02;;;;;;;3.40;2.58;;;;;;;33.49;39.16;100909.59;5048397;28;20049;-82
2022/07/03 10:19:38;;;;;;;3.13;2.53;;;;;;;33.63;39.11;100910.59;5045855;28;20484;-82
2022/07/03 10:22:17;;;;;;;6.40;3.15;;;;;;;33.43;39.36;100899.97;5060010;28;20044;-82
2022/07/03 10:24:47;;;;;;;6.13;3.15;;;;;;;33.54;39.26;100907.53;5061271;28;20040;-82
2022/07/03 10:27:16;;;;;;;4.28;2.40;;;;;;;33.42;39.87;100904.03;5068792;28;20049;-82
2022/07/03 10:29:44;;;;;;;4.60;2.70;;;;;;;33.49;39.33;100901.09;5047597;28;20041;-82
2022/07/03 10:32:13;;;;;;;8.25;3.20;;;;;;;33.62;39.73;100886.31;5046979;28;20049;-82
2022/07/03 10:34:41;;;;;;;2.97;2.78;;;;;;;33.78;39.19;100886.38;5047826;28;20492;-82
2022/07/03 10:37:18;;;;;;;3.78;2.80;;;;;;;33.78;38.80;100897.72;5037014;28;20054;-82
2022/07/03 10:44:45;;;;;;;5.22;3.08;;;;;;;33.85;38.45;100898.84;5047873;28;20045;-82
2022/07/03 10:46:24;;;;;;;3.10;2.80;;;;;;;33.90;37.85;100890.63;5047694;28;20037;-81
2022/07/03 10:49:06;;;;;;;4.65;2.95;;;;;;;33.98;38.36;100891.28;5040481;28;20510;-82
2022/07/03 10:51:44;;;;;;;3.33;2.50;;;;;;;34.07;37.86;100890.75;5044143;28;20512;-82
2022/07/03 10:54:25;;;;;;;3.10;2.70;;;;;;;34.13;37.94;100888.19;5055275;28;20049;-82
2022/07/03 10:57:02;;;;;;;5.35;2.75;;;;;;;34.29;37.47;100896.75;5061187;28;20052;-83
2022/07/03 10:59:45;;;;;;;3.13;2.67;;;;;;;34.26;37.33;100891.94;5051235;28;20059;-82
2022/07/03 11:02:18;;;;;;;3.83;2.72;;;;;;;34.39;37.43;100891.28;5049693;28;20042;-82
2022/07/03 11:05:02;;;;;;;6.22;3.28;;;;;;;34.47;37.29;100883.41;5053654;28;20526;-82
2022/07/03 11:08:05;;;;;;;5.32;2.72;;;;;;;34.56;37.08;100878.72;5060499;28;20045;-82
2022/07/03 11:10:40;;;;;;;5.88;2.92;;;;;;;34.69;36.74;100881.69;5036968;28;20056;-82
2022/07/03 11:13:12;;;;;;;5.07;3.30;;;;;;;34.50;36.13;100871.94;5054805;28;20068;-81
2022/07/03 11:15:42;;;;;;;6.85;3.53;;;;;;;34.66;37.00;100864.72;5040164;28;20037;-82
2022/07/03 11:18:16;;;;;;;5.55;2.95;;;;;;;34.80;36.92;100875.75;5042026;28;20061;-82
2022/07/03 11:20:44;;;;;;;7.00;3.10;;;;;;;34.73;36.61;100872.31;5045579;28;20508;-82
2022/07/03 11:23:12;;;;;;;5.53;2.83;;;;;;;34.84;36.57;100867.94;5040866;28;20053;-82
2022/07/03 11:25:44;;;;;;;3.45;3.15;;;;;;;34.97;36.41;100861.53;5041674;28;20041;-82
2022/07/03 11:28:32;;;;;;;3.50;2.95;;;;;;;35.09;36.29;100871.44;5043856;28;20037;-82
2022/07/03 11:31:10;;;;;;;3.15;2.85;;;;;;;35.05;36.64;100859.34;5047882;28;20037;-82
2022/07/03 11:33:44;;;;;;;5.15;3.00;;;;;;;35.05;36.72;100865.81;5048470;28;20044;-82
2022/07/03 11:36:16;;;;;;;2.63;2.42;;;;;;;35.07;36.09;100863.31;5048960;28;20041;-82
2022/07/03 11:38:47;;;;;;;3.28;3.08;;;;;;;35.32;35.96;100850.53;5044410;28;20052;-82
2022/07/03 11:41:16;;;;;;;3.67;3.25;;;;;;;35.26;35.70;100840.94;5043674;28;20496;-82
2022/07/03 11:43:48;;;;;;;3.60;2.65;;;;;;;35.34;35.30;100850.88;5039310;28;20053;-82
2022/07/03 11:46:18;;;;;;;3.20;2.90;;;;;;;35.22;34.97;100840.22;5047505;28;20037;-82
2022/07/03 11:48:47;;;;;;;4.57;2.97;;;;;;;35.35;34.77;100838.28;5032196;28;20046;-83
2022/07/03 11:51:17;;;;;;;3.22;2.67;;;;;;;35.37;34.93;100835.75;5034454;28;20044;-82
2022/07/03 11:53:47;;;;;;;4.53;2.83;;;;;;;35.57;33.91;100837.66;5046542;28;20041;-82
2022/07/03 11:56:45;;;;;;;3.40;3.10;;;;;;;35.69;33.70;100833.31;5042072;28;20749;-83
2022/07/03 11:59:22;;;;;;;3.10;2.80;;;;;;;35.80;33.33;100827.31;5046714;28;20048;-83
2022/07/03 12:01:51;;;;;;;4.50;2.58;;;;;;;35.78;33.47;100819.19;5041642;28;20041;-82
2022/07/03 12:04:24;;;;;;;3.53;3.22;;;;;;;35.81;33.82;100817.50;5050442;28;20499;-83
2022/07/03 12:06:59;;;;;;;2.80;2.58;;;;;;;35.96;33.75;100805.72;5036388;28;20582;-82
2022/07/03 12:09:35;;;;;;;2.90;2.60;;;;;;;36.10;33.32;100813.03;5046865;28;20053;-82
2022/07/03 12:12:05;;;;;;;6.85;3.03;;;;;;;36.24;33.29;100815.44;5044187;28;20056;-83
2022/07/03 12:14:48;;;;;;;5.03;3.30;;;;;;;36.36;32.08;100805.28;5042316;28;20052;-83
2022/07/03 12:17:20;;;;;;;3.00;2.72;;;;;;;36.66;31.89;100808.88;5042712;28;20053;-82
2022/07/03 12:19:56;;;;;;;5.53;3.08;;;;;;;36.61;32.39;100809.44;5047250;28;20401;-83
2022/07/03 12:22:34;;;;;;;3.72;2.70;;;;;;;36.49;32.26;100813.06;5042632;28;20068;-83
2022/07/03 12:25:08;;;;;;;5.65;3.00;;;;;;;36.50;32.09;100803.25;5046651;28;20107;-83
2022/07/03 12:27:44;;;;;;;3.25;2.85;;;;;;;36.28;32.40;100793.34;5050230;28;20052;-83
2022/07/03 12:30:20;;;;;;;3.38;3.08;;;;;;;36.31;32.67;100800.19;5042920;28;20057;-81
2022/07/03 12:32:56;;;;;;;2.83;2.60;;;;;;;36.31;32.79;100800.97;5043608;28;20068;-82
2022/07/03 12:35:26;;;;;;;3.35;3.05;;;;;;;36.32;31.94;100804.63;5044429;28;20041;-82
2022/07/03 12:37:54;;;;;;;3.10;2.72;;;;;;;36.45;31.69;100796.88;5048753;28;20053;-83
2022/07/03 12:40:22;;;;;;;3.20;2.80;;;;;;;36.56;32.33;100799.34;5046722;28;20048;-82
2022/07/03 12:42:52;;;;;;;2.92;2.72;;;;;;;36.81;31.31;100794.94;5044754;28;20037;-82
2022/07/03 12:45:26;;;;;;;7.38;3.20;;;;;;;36.97;30.89;100793.16;5046862;28;20052;-81
2022/07/03 12:48:05;;;;;;;2.80;2.60;;;;;;;36.72;31.19;100780.56;5047125;28;20045;-82
2022/07/03 12:50:52;;;;;;;3.08;2.88;;;;;;;36.79;30.88;100786.03;5034454;28;20044;-83
2022/07/03 12:53:32;;;;;;;3.85;3.00;;;;;;;37.00;30.70;100771.50;5045537;28;20522;-83
2022/07/03 12:56:11;;;;;;;2.95;2.70;;;;;;;37.12;30.86;100767.81;5045152;28;20041;-83
2022/07/03 13:01:36;;;;;;;4.07;3.00;;;;;;;36.94;30.39;100774.91;5044414;28;20033;-83
2022/07/03 13:04:08;;;;;;;3.80;2.65;;;;;;;37.06;30.90;100781.84;5041212;28;20038;-83
2022/07/03 13:06:37;;;;;;;3.47;2.95;;;;;;;37.06;30.98;100775.34;5043853;28;20079;-83
2022/07/03 13:09:05;;;;;;;3.10;2.90;;;;;;;36.90;29.96;100782.81;5038450;28;20045;-84
2022/07/03 13:11:39;;;;;;;3.03;2.72;;;;;;;36.87;30.34;100760.91;5031558;28;20050;-83
2022/07/03 13:14:16;;;;;;;3.38;3.17;;;;;;;36.96;30.34;100763.06;5030069;28;20053;-82
2022/07/03 13:16:52;;;;;;;4.90;3.15;;;;;;;37.22;29.47;100765.84;5031627;28;20488;-83